createdAt,value
2018-06-11T00:01:21.798Z,19.40
2018-06-11T00:05:24.412Z,20.10
2018-06-11T00:09:27.060Z,16.73
2018-06-11T00:13:29.675Z,16.97
2018-06-11T00:17:32.438Z,17.67
2018-06-11T00:21:49.008Z,17.07
2018-06-11T00:25:53.005Z,17.50
2018-06-11T00:29:55.662Z,17.63
2018-06-11T00:33:58.367Z,18.60
2018-06-11T00:38:00.951Z,17.83
2018-06-11T00:42:07.517Z,19.20
2018-06-11T00:46:21.557Z,17.43
2018-06-11T00:50:24.317Z,17.70
2018-06-11T00:54:27.031Z,17.47
2018-06-11T00:58:29.910Z,18.33
2018-06-11T01:02:47.149Z,17.87
2018-06-11T01:06:57.827Z,18.83
2018-06-11T01:11:05.355Z,20.27
2018-06-11T01:15:19.725Z,18.20
2018-06-11T01:19:22.477Z,19.47
2018-06-11T01:23:25.134Z,18.97
2018-06-11T01:27:27.827Z,19.17
2018-06-11T01:31:30.578Z,19.70
2018-06-11T01:35:50.146Z,18.07
2018-06-11T01:39:53.150Z,17.97
2018-06-11T01:43:55.782Z,16.67
2018-06-11T01:47:58.523Z,18.33
2018-06-11T01:52:01.188Z,17.77
2018-06-11T01:56:11.466Z,17.67
2018-06-11T02:00:20.242Z,18.57
2018-06-11T02:04:22.958Z,19.13
2018-06-11T02:08:25.581Z,20.30
2018-06-11T02:12:29.910Z,20.40
2018-06-11T02:16:33.491Z,21.20
2018-06-11T02:20:51.494Z,21.03
2018-06-11T02:24:55.203Z,21.37
2018-06-11T02:28:57.971Z,18.37
2018-06-11T02:33:04.564Z,19.67
2018-06-11T02:37:13.547Z,18.87
2018-06-11T02:41:21.002Z,18.10
2018-06-11T02:45:26.131Z,17.50
2018-06-11T02:49:28.764Z,15.83
2018-06-11T02:53:31.582Z,16.67
2018-06-11T02:57:37.988Z,16.87
2018-06-11T03:01:49.455Z,18.00
2018-06-11T03:05:54.119Z,17.87
2018-06-11T03:09:56.759Z,22.43
2018-06-11T03:13:59.342Z,18.77
2018-06-11T03:18:06.887Z,18.40
2018-06-11T03:22:18.315Z,19.07
2018-06-11T03:26:21.754Z,19.03
2018-06-11T03:30:28.865Z,18.13
2018-06-11T03:34:31.510Z,19.40
2018-06-11T03:38:50.170Z,19.43
2018-06-11T03:42:52.864Z,21.40
2018-06-11T03:47:00.305Z,19.47
2018-06-11T03:51:02.954Z,18.63
2018-06-11T03:55:05.763Z,19.17
2018-06-11T03:59:16.032Z,20.23
2018-06-11T04:03:21.406Z,23.40
2018-06-11T04:07:24.148Z,18.57
2018-06-11T04:11:26.777Z,19.10
2018-06-11T04:15:29.478Z,22.83
2018-06-11T04:19:38.113Z,17.97
2018-06-11T04:23:51.685Z,21.33
2018-06-11T04:27:54.279Z,20.03
2018-06-11T04:31:56.922Z,18.37
2018-06-11T04:35:59.574Z,17.67
2018-06-11T04:40:04.075Z,17.23
2018-06-11T04:48:24.894Z,18.40
2018-06-11T04:52:28.561Z,20.73
2018-06-11T04:56:32.326Z,17.63
2018-06-11T05:00:36.107Z,22.83
2018-06-11T05:04:54.951Z,23.50
2018-06-11T05:13:31.133Z,20.47
2018-06-11T05:17:51.969Z,19.53
2018-06-11T05:21:59.635Z,21.40
2018-06-11T05:26:02.283Z,24.53
2018-06-11T05:30:19.297Z,19.80
2018-06-11T05:34:28.016Z,19.53
2018-06-11T05:38:30.725Z,21.57
2018-06-11T05:42:33.358Z,21.10
2018-06-11T05:46:36.020Z,25.17
2018-06-11T05:50:56.047Z,21.40
2018-06-11T05:54:59.091Z,21.20
2018-06-11T05:59:02.025Z,21.87
2018-06-11T06:07:22.955Z,24.00
2018-06-11T06:11:25.766Z,23.23
2018-06-11T06:15:28.403Z,25.93
2018-06-11T06:19:31.255Z,25.87
2018-06-11T06:23:49.018Z,24.23
2018-06-11T06:27:56.248Z,23.07
2018-06-11T06:31:58.954Z,22.33
2018-06-11T06:36:01.682Z,25.93
2018-06-11T06:40:04.395Z,28.13
2018-06-11T06:44:15.068Z,26.97
2018-06-11T06:48:25.555Z,27.37
2018-06-11T06:52:31.009Z,27.77
2018-06-11T06:56:34.491Z,28.73
2018-06-11T07:00:54.745Z,30.13
2018-06-11T07:09:51.873Z,27.13
2018-06-11T07:13:54.654Z,23.93
2018-06-11T07:17:57.511Z,26.17
2018-06-11T07:22:00.359Z,24.10
2018-06-11T07:26:19.990Z,28.70
2018-06-11T07:30:22.882Z,23.90
2018-06-11T07:34:28.950Z,23.93
2018-06-11T07:38:32.296Z,23.10
2018-06-11T07:42:51.146Z,26.87
2018-06-11T07:46:53.792Z,23.43
2018-06-11T07:51:00.064Z,21.90
2018-06-11T07:55:24.565Z,22.30
2018-06-11T07:59:33.761Z,23.63
2018-06-11T08:07:53.921Z,22.60
2018-06-11T08:11:56.550Z,22.83
2018-06-11T08:16:06.229Z,22.70
2018-06-11T08:20:22.087Z,24.57
2018-06-11T08:24:25.010Z,22.60
2018-06-11T08:28:31.179Z,25.37
2018-06-11T08:32:50.702Z,26.03
2018-06-11T08:36:55.175Z,26.77
2018-06-11T08:40:58.040Z,24.67
2018-06-11T08:45:00.726Z,24.63
2018-06-11T08:49:03.548Z,21.37
2018-06-11T08:53:21.084Z,26.77
2018-06-11T08:57:23.759Z,25.97
2018-06-11T09:01:26.423Z,25.43
2018-06-11T09:05:36.181Z,23.50
2018-06-11T09:09:48.674Z,26.53
2018-06-11T09:13:51.750Z,24.73
2018-06-11T09:17:54.461Z,26.03
2018-06-11T09:21:57.224Z,23.60
2018-06-11T09:25:59.879Z,21.63
2018-06-11T09:30:21.271Z,21.97
2018-06-11T09:34:24.929Z,22.47
2018-06-11T09:38:27.543Z,21.60
2018-06-11T09:42:30.135Z,22.90
2018-06-11T09:50:52.401Z,23.23
2018-06-11T09:54:55.341Z,23.10
2018-06-11T09:58:57.950Z,22.93
2018-06-11T10:03:00.950Z,24.57
2018-06-11T10:07:16.217Z,23.50
2018-06-11T10:11:21.490Z,22.93
2018-06-11T10:15:24.110Z,21.00
2018-06-11T10:19:26.962Z,18.53
2018-06-11T10:23:29.873Z,19.93
2018-06-11T10:31:52.166Z,22.60
2018-06-11T10:35:55.615Z,19.37
2018-06-11T10:39:58.343Z,19.17
2018-06-11T10:44:01.285Z,18.30
2018-06-11T10:48:20.427Z,17.30
2018-06-11T10:52:43.535Z,16.20
2018-06-11T10:56:50.370Z,15.57
2018-06-11T11:00:57.875Z,16.93
2018-06-11T11:05:00.618Z,16.80
2018-06-11T11:09:22.215Z,19.20
2018-06-11T11:13:26.281Z,17.43
2018-06-11T11:17:29.055Z,19.23
2018-06-11T11:21:49.688Z,17.30
2018-06-11T11:25:52.374Z,18.00
2018-06-11T11:29:55.025Z,19.47
2018-06-11T11:34:02.947Z,21.70
2018-06-11T11:38:15.392Z,17.87
2018-06-11T11:42:20.519Z,18.50
2018-06-11T11:46:23.283Z,18.60
2018-06-11T11:50:27.104Z,19.73
2018-06-11T11:54:29.771Z,21.07
2018-06-11T11:58:32.571Z,17.63
2018-06-11T12:02:51.796Z,18.40
2018-06-11T12:07:01.195Z,17.37
2018-06-11T12:11:03.924Z,17.70
2018-06-11T12:15:17.143Z,18.00
2018-06-11T12:19:21.225Z,19.30
2018-06-11T12:23:28.062Z,16.80
2018-06-11T12:27:30.753Z,21.43
2018-06-11T12:31:51.298Z,18.03
2018-06-11T12:36:19.860Z,17.13
2018-06-11T12:40:28.574Z,16.67
2018-06-11T12:44:31.242Z,17.53
2018-06-11T12:48:50.637Z,15.83
2018-06-11T12:52:56.323Z,17.77
2018-06-11T12:56:59.139Z,18.20
2018-06-11T13:01:21.851Z,21.50
2018-06-11T13:05:25.831Z,17.70
2018-06-11T13:09:28.471Z,17.43
2018-06-11T13:13:31.266Z,17.93
2018-06-11T13:17:49.941Z,16.37
2018-06-11T13:22:00.084Z,19.00
2018-06-11T13:26:20.120Z,16.63
2018-06-11T13:30:22.898Z,18.27
2018-06-11T13:34:25.594Z,21.07
2018-06-11T13:39:14.066Z,16.67
2018-06-11T13:43:19.905Z,16.47
2018-06-11T13:47:27.395Z,20.40
2018-06-11T13:51:30.070Z,18.43
2018-06-11T13:55:33.926Z,21.37
2018-06-11T13:59:50.094Z,18.33
2018-06-11T14:03:54.835Z,19.27
2018-06-11T14:07:57.535Z,24.17
2018-06-11T14:12:21.599Z,22.60
2018-06-11T14:16:27.860Z,24.20
2018-06-11T14:20:32.786Z,26.27
2018-06-11T14:24:45.834Z,23.17
2018-06-11T14:29:21.490Z,22.93
2018-06-11T14:33:27.783Z,27.03
2018-06-11T14:37:30.618Z,24.33
2018-06-11T14:41:33.350Z,27.03
2018-06-11T14:49:54.746Z,31.57
2018-06-11T14:54:01.472Z,26.63
2018-06-11T14:58:25.877Z,26.37
2018-06-11T15:02:28.760Z,27.27
2018-06-11T15:06:31.511Z,24.53
2018-06-11T15:15:34.227Z,30.17
2018-06-11T15:19:55.886Z,29.70
2018-06-11T15:24:00.041Z,27.37
2018-06-11T15:28:04.091Z,28.17
2018-06-11T15:32:18.962Z,25.10
2018-06-11T15:36:27.535Z,25.17
2018-06-11T15:40:30.190Z,28.73
2018-06-11T15:44:32.780Z,30.57
2018-06-11T15:48:37.153Z,25.83
2018-06-11T15:52:57.556Z,28.07
2018-06-11T15:57:02.542Z,26.37
2018-06-11T16:01:22.581Z,23.80
2018-06-11T16:05:30.064Z,24.60
2018-06-11T16:10:01.166Z,23.83
2018-06-11T16:14:04.403Z,25.70
2018-06-11T16:18:24.622Z,27.07
2018-06-11T16:22:47.777Z,25.13
2018-06-11T16:26:55.423Z,26.23
2018-06-11T16:31:15.886Z,22.20
2018-06-11T16:35:41.338Z,21.90
2018-06-11T16:39:52.523Z,23.13
2018-06-11T16:43:58.580Z,25.13
2018-06-11T16:48:01.418Z,20.77
2018-06-11T16:52:04.335Z,19.33
2018-06-11T16:56:09.775Z,17.00
2018-06-11T17:00:25.014Z,18.07
2018-06-11T17:04:27.785Z,18.93
2018-06-11T17:08:35.050Z,17.33
2018-06-11T17:12:43.461Z,18.03
2018-06-11T17:16:47.910Z,20.37
2018-06-11T17:20:50.979Z,23.37
2018-06-11T17:24:56.779Z,18.87
2018-06-11T17:29:00.586Z,19.77
2018-06-11T17:33:03.785Z,19.57
2018-06-11T17:37:11.127Z,16.87
2018-06-11T17:41:18.487Z,20.40
2018-06-11T17:45:21.267Z,20.17
2018-06-11T17:50:01.046Z,18.17
2018-06-11T17:54:21.918Z,14.47
2018-06-11T17:58:34.945Z,16.80
2018-06-11T18:02:51.211Z,15.57
2018-06-11T18:07:30.865Z,17.47
2018-06-11T18:15:53.555Z,13.40
2018-06-11T18:19:56.325Z,10.10
2018-06-11T18:24:02.200Z,12.17
2018-06-11T18:28:05.230Z,11.03
2018-06-11T18:32:19.109Z,10.83
2018-06-11T18:36:25.207Z,11.33
2018-06-11T18:40:34.941Z,15.17
2018-06-11T18:44:55.884Z,10.97
2018-06-11T18:48:59.679Z,10.83
2018-06-11T18:53:03.385Z,11.37
2018-06-11T18:57:06.358Z,10.73
2018-06-11T19:01:10.283Z,14.60
2018-06-11T19:05:13.142Z,14.73
2018-06-11T19:09:15.924Z,12.87
2018-06-11T19:13:20.779Z,13.00
2018-06-11T19:17:28.690Z,19.53
2018-06-11T19:21:31.939Z,16.33
2018-06-11T19:25:39.235Z,18.00
2018-06-11T19:29:42.786Z,11.80
2018-06-11T19:33:45.702Z,16.20
2018-06-11T19:37:48.497Z,11.93
2018-06-11T19:41:51.181Z,10.87
2018-06-11T19:45:53.980Z,14.00
2018-06-11T19:49:56.724Z,13.37
2018-06-11T19:53:59.930Z,8.83
2018-06-11T19:58:04.687Z,10.13
2018-06-11T20:02:08.118Z,9.27
2018-06-11T20:10:40.560Z,11.63
2018-06-11T20:14:48.062Z,10.40
2018-06-11T20:18:56.750Z,9.53
2018-06-11T20:22:59.427Z,11.57
2018-06-11T20:27:03.805Z,12.53
2018-06-11T20:31:06.785Z,12.23
2018-06-11T20:35:09.839Z,10.13
2018-06-11T20:39:25.060Z,10.80
2018-06-11T20:43:34.443Z,11.87
2018-06-11T20:47:39.359Z,11.40
2018-06-11T20:51:54.532Z,15.07
2018-06-11T20:55:58.294Z,12.43
2018-06-11T21:00:05.311Z,14.20
2018-06-11T21:04:08.206Z,11.60
2018-06-11T21:08:11.133Z,13.20
2018-06-11T21:12:13.911Z,10.97
2018-06-11T21:16:16.855Z,14.43
2018-06-11T21:20:19.612Z,12.70
2018-06-11T21:24:24.607Z,13.40
2018-06-11T21:28:29.349Z,15.53
2018-06-11T21:32:32.615Z,12.70
2018-06-11T21:36:35.536Z,16.97
2018-06-11T21:40:38.426Z,12.70
2018-06-11T21:44:41.958Z,12.27
2018-06-11T21:48:51.643Z,12.10
2018-06-11T21:52:54.466Z,11.60
2018-06-11T21:56:57.694Z,11.43
2018-06-11T22:01:00.365Z,12.67
2018-06-11T22:05:03.506Z,12.43
2018-06-11T22:09:08.716Z,11.53
2018-06-11T22:13:11.427Z,13.10
2018-06-11T22:17:15.068Z,13.80
2018-06-11T22:21:17.770Z,11.50
2018-06-11T22:25:20.379Z,12.47
2018-06-11T22:29:25.442Z,11.97
2018-06-11T22:33:28.194Z,11.87
2018-06-11T22:37:31.055Z,12.03
2018-06-11T22:41:33.981Z,15.47
2018-06-11T22:45:36.982Z,12.33
2018-06-11T22:49:39.673Z,13.87
2018-06-11T22:53:42.443Z,13.80
2018-06-11T22:57:45.068Z,13.27
2018-06-11T23:01:47.947Z,13.30
2018-06-11T23:05:50.722Z,15.57
2018-06-11T23:09:53.608Z,13.10
2018-06-11T23:13:56.223Z,15.17
2018-06-11T23:17:58.907Z,13.83
2018-06-11T23:22:02.910Z,16.67
2018-06-11T23:26:06.019Z,17.33
2018-06-11T23:30:08.818Z,17.10
2018-06-11T23:34:12.019Z,15.23
2018-06-11T23:38:14.704Z,20.50
2018-06-11T23:42:17.542Z,20.37
2018-06-11T23:46:27.496Z,20.73
2018-06-11T23:50:30.319Z,20.63
2018-06-11T23:54:33.193Z,20.27
2018-06-11T23:58:37.375Z,15.83
